Latest Weather Observations for King Island Airport

IDT60801

Issued at 2:01 am EST Friday 19 August 2022 (issued every 10 minutes, with the page automatically refreshed every 10 minutes)

About weather observations | Map of weather stations | Latest weather observations for TAS | Other Formats
Station Details ID: 098017 Name: KING ISLAND AIRPORT Lat: -39.88 Lon: 143.89 Height: 35.42 m
Data from the previous 72 hours. | See also: Recent months at King Island Airport
Date/Time
EST
Temp
°C
App
Temp
°C
Dew
Point
°C
Rel
Hum
%
Delta-T
°C
Wind Press
QNH
hPa
Press
MSL
hPa
Rain since
9am
mm
Dir  Spd
km/h
Gust
km/h
Spd
kts
Gust
kts
19/02:00am 9.5 4.0 5.7 77 1.7 W 24 35 13 19 1008.4 1008.4 10.4
19/01:30am 9.9 3.9 5.5 74 2.0 W 26 39 14 21 1008.3 1008.3 10.4
19/01:00am 10.4 4.9 5.8 73 2.1 W 24 33 13 18 1008.0 1008.0 10.4
19/12:30am 10.0 3.4 4.4 68 2.5 W 28 43 15 23 1007.8 1007.8 10.4
19/12:00am 10.4 4.4 5.2 70 2.4 W 26 35 14 19 1007.4 1007.4 10.4
 
Date/Time
EST
Temp
°C
App
Temp
°C
Dew
Point
°C
Rel
Hum
%
Delta-T
°C
Wind Press
QNH
hPa
Press
MSL
hPa
Rain since
9am
mm
Dir  Spd
km/h
Gust
km/h
Spd
kts
Gust
kts
18/11:45pm 10.3 3.9 5.3 71 2.3 W 28 48 15 26 1007.3 1007.3 10.4
18/11:30pm 10.1 3.6 4.7 69 2.4 W 28 43 15 23 1007.3 1007.3 10.4
18/11:00pm 9.9 4.7 7.2 83 1.3 W 24 35 13 19 1007.2 1007.2 10.4
18/10:50pm 9.8 3.6 7.9 88 0.9 W 30 48 16 26 1007.2 1007.2 10.4
18/10:30pm 11.0 5.0 5.1 67 2.7 W 26 35 14 19 1007.0 1007.0 10.0
18/10:00pm 11.2 4.4 5.3 67 2.7 W 30 43 16 23 1006.9 1006.9 10.0
18/09:30pm 11.2 4.8 5.3 67 2.7 W 28 39 15 21 1006.8 1006.8 10.0
18/09:00pm 11.3 5.1 6.2 71 2.4 W 28 46 15 25 1006.7 1006.7 10.0
18/08:56pm 11.4 5.3 6.5 72 2.3 W 28 46 15 25 1006.6 1006.6 10.0
18/08:30pm 11.6 4.7 6.5 71 2.4 W 32 43 17 23 1005.9 1005.9 10.0
18/08:00pm 11.3 6.0 7.0 75 2.1 W 24 39 13 21 1005.9 1005.9 10.0
18/07:30pm 11.6 5.6 7.1 74 2.2 W 28 37 15 20 1005.9 1005.9 10.0
18/07:00pm 11.3 5.2 6.8 74 2.1 W 28 39 15 21 1005.4 1005.4 10.0
18/06:30pm 10.9 5.9 8.0 82 1.4 W 24 32 13 17 1004.9 1004.9 10.0
18/06:00pm 11.0 6.0 7.9 81 1.5 W 24 32 13 17 1004.5 1004.5 10.0
18/05:30pm 11.7 6.9 8.7 82 1.5 W 24 35 13 19 1003.8 1003.8 10.0
18/05:00pm 11.7 6.0 8.4 80 1.6 W 28 39 15 21 1003.7 1003.7 10.0
18/04:45pm 11.7 6.3 9.6 87 1.1 W 28 46 15 25 1003.6 1003.6 10.0
18/04:30pm 12.4 6.0 8.7 78 1.8 W 32 46 17 25 1003.3 1003.3 10.0
18/04:00pm 12.6 6.5 8.3 75 2.1 W 30 46 16 25 1003.2 1003.2 10.0
18/03:30pm 12.5 6.8 8.2 75 2.1 W 28 43 15 23 1002.9 1002.9 10.0
18/03:00pm 12.7 6.2 8.8 77 2.0 W 33 46 18 25 1002.4 1002.4 10.0
18/02:30pm 13.1 5.8 8.8 75 2.2 W 37 56 20 30 1002.1 1002.1 10.0
18/02:00pm 13.2 5.7 9.3 77 2.0 W 39 57 21 31 1001.6 1001.6 10.0
18/01:57pm 13.6 6.4 10.4 81 1.7 W 39 57 21 31 1001.6 1001.6 10.0
18/01:51pm 13.4 5.7 10.2 81 1.7 W 41 57 22 31 1001.4 1001.4 10.0
18/01:37pm 13.0 5.1 11.6 91 0.7 WNW 44 63 24 34 1001.4 1001.4 10.0
18/01:33pm 12.6 4.1 10.7 88 1.0 WNW 46 63 25 34 1001.4 1001.4 10.0
18/01:30pm 13.5 4.9 10.3 81 1.7 WNW 46 59 25 32 1001.3 1001.3 9.6
18/01:16pm 13.9 5.2 10.1 78 2.0 WNW 46 65 25 35 1001.1 1001.1 9.6
18/01:00pm 13.6 4.4 11.0 84 1.4 NW 50 65 27 35 1000.9 1000.9 9.6
18/12:47pm 13.6 5.0 10.2 80 1.8 WNW 46 65 25 35 1000.9 1000.9 9.6
18/12:30pm 13.6 4.5 11.1 85 1.3 NW 50 65 27 35 1000.9 1000.9 9.6
18/12:11pm 12.7 3.3 11.6 93 0.6 NW 52 70 28 38 1001.0 1001.0 9.6
18/12:09pm 12.5 3.5 11.6 94 0.5 NW 50 63 27 34 1001.1 1001.1 9.6
18/12:00pm 12.0 1.7 11.1 94 0.5 NW 56 74 30 40 1001.0 1001.0 9.6
18/11:39am 12.6 2.4 11.5 93 0.6 NW 56 85 30 46 1000.8 1000.8 8.6
18/11:35am 12.8 4.4 12.2 96 0.3 NW 48 69 26 37 1000.6 1000.6 8.2
18/11:30am 12.5 5.4 12.3 99 0.1 NW 41 63 22 34 1001.0 1001.0 7.8
18/11:03am 12.7 2.9 11.4 92 0.7 NW 54 72 29 39 1001.0 1001.0 1.2
18/11:01am 12.8 2.4 11.2 90 0.8 NNW 57 72 31 39 1001.0 1001.0 0.6
18/11:00am 12.9 2.4 11.1 89 1.0 NNW 57 72 31 39 1001.0 1001.0 0.4
18/10:30am 14.4 3.9 10.4 77 2.1 NNW 56 72 30 39 1000.7 1000.7 0.0
18/10:00am 14.3 5.0 10.5 78 2.0 NW 50 65 27 35 1000.8 1000.8 0.0
18/09:37am 14.5 4.5 10.7 78 2.0 NW 54 76 29 41 1001.0 1001.0 0.0
18/09:30am 14.2 4.5 10.6 79 1.9 NNW 52 69 28 37 1001.2 1001.2 0.0
18/09:20am 14.2 4.9 10.4 78 2.0 NNW 50 69 27 37 1001.0 1001.0 0.0
18/09:00am 14.3 4.9 10.1 76 2.2 NNW 50 65 27 35 1001.2 1001.2 3.6
18/08:35am 14.1 4.6 9.7 75 2.3 NNW 50 69 27 37 1001.0 1001.0 3.6
18/08:30am 14.1 5.0 9.7 75 2.3 NNW 48 63 26 34 1001.1 1001.1 3.6
18/08:00am 13.6 5.4 9.8 78 2.0 NNW 43 63 23 34 1001.2 1001.2 3.6
18/07:30am 13.5 5.3 9.7 78 2.0 N 43 63 23 34 1001.0 1001.0 3.6
18/07:13am 13.2 5.4 9.8 80 1.7 N 41 63 22 34 1001.1 1001.1 3.6
18/07:00am 12.9 6.4 10.3 84 1.4 N 35 48 19 26 1001.2 1001.2 3.6
18/06:39am 12.9 6.5 10.6 86 1.2 N 35 54 19 29 1001.1 1001.1 3.6
18/06:30am 13.0 6.1 10.2 83 1.4 N 37 54 20 29 1001.0 1001.0 3.6
18/06:00am 12.5 6.1 10.7 89 0.9 N 35 46 19 25 1001.2 1001.2 3.6
18/05:43am 12.4 5.6 10.8 90 0.8 N 37 56 20 30 1001.7 1001.7 3.6
18/05:30am 12.6 4.7 10.8 89 0.9 N 43 56 23 30 1002.0 1002.0 3.2
18/05:03am 13.1 6.2 10.3 83 1.5 N 37 56 20 30 1002.7 1002.7 2.8
18/05:00am 13.1 5.8 10.1 82 1.6 N 39 56 21 30 1002.6 1002.6 2.8
18/04:30am 12.9 5.2 10.3 84 1.3 NNW 41 54 22 29 1002.5 1002.5 2.8
18/04:11am 12.8 4.7 10.2 84 1.3 NNW 43 61 23 33 1003.0 1003.0 2.8
18/04:00am 13.0 4.9 10.2 83 1.5 NNW 43 59 23 32 1003.1 1003.1 2.8
18/03:54am 13.0 4.4 10.2 83 1.4 NNW 46 63 25 34 1003.5 1003.5 2.8
18/03:30am 13.2 4.1 9.8 80 1.7 NNW 48 63 26 34 1003.7 1003.7 2.8
18/03:21am 13.3 4.9 9.7 79 1.8 NNW 44 63 24 34 1003.5 1003.5 2.8
18/03:00am 13.2 5.6 10.4 83 1.5 NNW 41 57 22 31 1004.4 1004.4 2.8
18/02:30am 13.0 4.3 10.0 82 1.5 N 46 61 25 33 1004.2 1004.2 2.8
18/02:03am 13.0 4.7 10.2 83 1.4 N 44 63 24 34 1004.4 1004.4 2.8
18/02:00am 13.0 4.7 10.2 83 1.5 N 44 59 24 32 1004.6 1004.6 2.8
18/01:30am 13.0 5.4 10.4 84 1.3 NNW 41 59 22 32 1005.4 1005.4 2.8
18/01:17am 12.8 6.0 10.5 86 1.2 NNW 37 56 20 30 1005.8 1005.8 2.8
18/01:00am 12.7 5.1 10.6 87 1.1 NNW 41 54 22 29 1006.2 1006.2 2.8
18/12:30am 13.0 5.0 10.4 84 1.3 NNW 43 52 23 28 1006.8 1006.8 2.6
18/12:00am 13.3 6.4 10.3 82 1.6 NNW 37 48 20 26 1007.4 1007.4 2.6
 
Date/Time
EST
Temp
°C
App
Temp
°C
Dew
Point
°C
Rel
Hum
%
Delta-T
°C
Wind Press
QNH
hPa
Press
MSL
hPa
Rain since
9am
mm
Dir  Spd
km/h
Gust
km/h
Spd
kts
Gust
kts
17/11:30pm 12.9 7.4 10.6 86 1.2 NNW 30 41 16 22 1007.5 1007.5 2.6
17/11:00pm 12.7 6.6 10.4 86 1.2 N 33 44 18 24 1007.6 1007.6 2.6
17/10:30pm 13.1 5.4 10.1 82 1.5 NNW 41 54 22 29 1008.1 1008.1 2.6
17/10:00pm 13.0 5.2 9.8 81 1.6 NNW 41 54 22 29 1008.1 1008.1 2.6
17/09:54pm 12.8 6.6 10.2 84 1.3 N 33 52 18 28 1008.4 1008.4 2.6
17/09:30pm 12.3 7.2 10.7 90 0.8 N 28 39 15 21 1008.6 1008.6 2.6
17/09:00pm 12.3 6.8 10.5 89 0.9 N 30 37 16 20 1008.8 1008.8 2.6
17/08:30pm 12.4 5.8 10.0 85 1.2 N 35 46 19 25 1009.0 1009.0 2.6
17/08:00pm 12.1 5.6 10.5 90 0.8 N 35 50 19 27 1009.4 1009.4 2.6
17/07:30pm 11.8 5.8 10.0 89 0.9 N 32 43 17 23 1008.8 1008.8 2.6
17/07:00pm 11.6 6.0 10.2 91 0.7 N 30 41 16 22 1009.2 1009.2 2.6
17/06:30pm 11.4 5.4 10.0 91 0.7 N 32 43 17 23 1009.6 1009.6 2.6
17/06:13pm 11.3 5.2 9.7 90 0.8 N 32 50 17 27 1010.2 1010.2 2.2
17/06:00pm 11.5 5.3 9.9 90 0.8 N 33 50 18 27 1010.1 1010.1 2.0
17/05:30pm 11.9 6.0 10.3 90 0.8 N 32 39 17 21 1010.2 1010.2 1.2
17/05:00pm 11.9 6.8 10.5 91 0.7 N 28 35 15 19 1010.6 1010.6 1.0
17/04:30pm 11.9 8.3 10.5 91 0.7 N 20 28 11 15 1011.1 1011.1 0.4
17/04:00pm 12.5 8.0 10.0 85 1.3 N 24 33 13 18 1011.3 1011.3 0.0
17/03:30pm 13.4 7.9 9.3 76 2.1 N 28 39 15 21 1012.0 1012.0 0.0
17/03:00pm 13.4 7.9 9.3 76 2.1 N 28 37 15 20 1012.0 1012.0 0.0
17/02:30pm 12.8 7.6 8.9 77 2.0 N 26 39 14 21 1012.6 1012.6 0.0
17/02:00pm 13.3 6.9 8.6 73 2.4 N 32 44 17 24 1012.4 1012.4 0.0
17/01:30pm 13.5 7.6 9.0 74 2.3 N 30 41 16 22 1012.8 1012.8 0.0
17/01:00pm 13.2 6.8 8.7 74 2.3 N 32 43 17 23 1013.3 1013.3 0.0
17/12:30pm 13.2 8.1 9.3 77 2.0 N 26 33 14 18 1014.0 1014.0 0.0
17/12:00pm 12.8 6.8 8.7 76 2.1 N 30 39 16 21 1014.5 1014.6 0.0
17/11:30am 12.7 6.3 8.6 76 2.0 N 32 43 17 23 1015.4 1015.5 0.0
17/11:00am 12.7 7.1 8.6 76 2.0 N 28 37 15 20 1015.6 1015.7 0.0
17/10:30am 11.9 7.0 8.4 79 1.7 N 24 32 13 17 1016.3 1016.4 0.0
17/10:00am 12.0 7.1 8.5 79 1.7 N 24 32 13 17 1016.5 1016.6 0.0
17/09:30am 11.9 6.2 8.4 79 1.7 N 28 35 15 19 1017.0 1017.1 0.0
17/09:00am 11.5 6.2 8.5 82 1.5 N 26 35 14 19 1017.1 1017.2 0.2
17/08:30am 11.8 7.9 8.8 82 1.5 N 19 28 10 15 1016.9 1017.0 0.2
17/08:00am 11.0 7.3 7.9 81 1.5 NNW 17 22 9 12 1016.8 1016.9 0.2
17/07:30am 10.5 7.4 7.4 81 1.5 N 13 19 7 10 1016.4 1016.5 0.2
17/07:00am 10.5 6.3 7.6 82 1.4 NW 19 22 10 12 1016.8 1016.9 0.2
17/06:30am 10.5 7.4 7.4 81 1.5 NNW 13 17 7 9 1016.7 1016.8 0.2
17/06:00am 10.3 6.8 7.4 82 1.4 NNW 15 20 8 11 1017.0 1017.1 0.2
17/05:30am 10.5 7.5 7.6 82 1.4 NW 13 19 7 10 1017.2 1017.3 0.2
17/05:00am 10.3 6.4 7.0 80 1.6 NW 17 20 9 11 1017.3 1017.4 0.2
17/04:30am 10.6 6.7 6.9 78 1.8 WNW 17 24 9 13 1017.2 1017.3 0.2
17/04:00am 10.2 6.7 7.1 81 1.5 NW 15 19 8 10 1017.2 1017.3 0.2
17/03:30am 9.8 6.1 6.5 80 1.5 WNW 15 20 8 11 1017.2 1017.3 0.2
17/03:00am 10.1 7.3 6.8 80 1.6 WNW 11 13 6 7 1017.4 1017.5 0.2
17/02:30am 10.0 7.5 6.5 79 1.6 WNW 9 13 5 7 1016.9 1017.0 0.2
17/02:00am 10.0 7.0 6.2 77 1.8 W 11 15 6 8 1017.2 1017.3 0.2
17/01:30am 10.0 6.7 6.5 79 1.6 WNW 13 17 7 9 1017.3 1017.4 0.2
17/01:00am 10.1 7.1 6.1 76 1.8 W 11 15 6 8 1017.6 1017.7 0.2
17/12:30am 10.1 7.5 6.1 76 1.9 WSW 9 13 5 7 1017.3 1017.4 0.2
17/12:00am 10.1 8.0 6.8 80 1.6 WSW 7 9 4 5 1017.6 1017.7 0.2
 
Date/Time
EST
Temp
°C
App
Temp
°C
Dew
Point
°C
Rel
Hum
%
Delta-T
°C
Wind Press
QNH
hPa
Press
MSL
hPa
Rain since
9am
mm
Dir  Spd
km/h
Gust
km/h
Spd
kts
Gust
kts
16/11:30pm 10.0 7.9 6.7 80 1.5 WSW 7 13 4 7 1017.7 1017.8 0.2
16/11:00pm 10.2 7.7 6.7 79 1.6 SW 9 13 5 7 1018.0 1018.1 0.2
16/10:30pm 10.5 6.9 6.6 77 1.8 WSW 15 20 8 11 1018.0 1018.1 0.2
16/10:00pm 10.6 7.6 7.5 81 1.5 SW 13 20 7 11 1018.2 1018.3 0.2
16/09:30pm 10.6 7.1 7.3 80 1.6 WSW 15 20 8 11 1017.9 1018.0 0.2
16/09:00pm 10.6 6.8 7.5 81 1.5 SW 17 26 9 14 1017.6 1017.7 0.2
16/08:30pm 10.6 6.5 7.7 82 1.4 SW 19 22 10 12 1017.5 1017.6 0.2
16/08:00pm 10.6 5.6 8.0 84 1.3 SSW 24 32 13 17 1017.1 1017.2 0.2
16/07:41pm 10.5 6.3 8.4 87 1.0 SW 20 28 11 15 1017.2 1017.3 0.2
16/07:30pm 10.4 6.0 8.8 90 0.8 SW 22 28 12 15 1017.2 1017.3 0.2
16/07:11pm 10.4 6.1 9.3 93 0.5 SW 22 30 12 16 1017.3 1017.4 0.2
16/07:00pm 10.3 5.6 9.2 93 0.5 SW 24 32 13 17 1017.1 1017.2 0.2
16/06:49pm 10.4 5.7 9.3 93 0.5 SW 24 30 13 16 1017.1 1017.2 0.2
16/06:30pm 10.7 6.3 9.1 90 0.8 SW 22 30 12 16 1017.1 1017.2 0.2
16/06:00pm 10.6 5.1 9.2 91 0.7 SW 28 37 15 20 1016.4 1016.5 0.2
16/05:30pm 11.1 6.1 8.1 82 1.5 SW 24 33 13 18 1016.1 1016.2 0.2
16/05:00pm 11.5 6.5 8.2 80 1.6 SW 24 33 13 18 1015.5 1015.6 0.2
16/04:30pm 12.1 7.7 8.8 80 1.6 SW 22 32 12 17 1014.5 1014.6 0.2
16/04:00pm 11.6 6.5 9.2 85 1.2 SSW 26 35 14 19 1014.2 1014.3 0.2
16/03:30pm 12.0 7.0 9.7 86 1.2 SW 26 39 14 21 1014.1 1014.2 0.2
16/03:00pm 11.7 6.1 8.9 83 1.4 SW 28 37 15 20 1014.1 1014.2 0.2
16/02:30pm 12.3 6.0 9.0 80 1.7 SW 32 39 17 21 1014.0 1014.0 0.2
16/02:00pm 12.7 7.2 9.3 80 1.7 SW 28 43 15 23 1013.8 1013.8 0.2
16/01:30pm 12.9 6.7 9.9 82 1.5 SW 33 41 18 22 1013.8 1013.8 0.2
16/01:00pm 12.1 6.7 10.8 92 0.7 SW 30 43 16 23 1013.4 1013.4 0.2
16/12:57pm 11.8 6.7 10.7 93 0.6 SW 28 39 15 21 1013.5 1013.5 0.2
16/12:41pm 11.4 5.4 10.0 91 0.7 SW 32 48 17 26 1013.6 1013.6 0.2
16/12:30pm 12.5 6.4 9.7 83 1.4 SW 32 41 17 22 1013.4 1013.4 0.0
16/12:00pm 12.8 6.8 10.2 84 1.3 SW 32 43 17 23 1013.4 1013.4 0.0
16/11:30am 11.8 4.7 9.5 86 1.2 SW 37 50 20 27 1013.5 1013.5 0.0
16/11:24am 11.6 4.4 9.3 86 1.2 SW 37 50 20 27 1013.5 1013.5 0.0
16/11:01am 12.0 5.9 10.6 91 0.7 SW 33 44 18 24 1013.2 1013.2 0.0
16/11:00am 12.0 6.0 10.7 92 0.7 SW 33 44 18 24 1013.2 1013.2 0.0
16/10:38am 11.7 4.7 9.9 89 0.9 SW 37 48 20 26 1012.8 1012.8 0.0
16/10:32am 11.7 5.2 10.4 92 0.7 SW 35 48 19 26 1012.7 1012.7 0.0
16/10:30am 11.5 5.1 10.6 94 0.5 SW 35 48 19 26 1012.7 1012.7 0.0
16/10:19am 11.3 4.8 10.5 95 0.4 SW 35 44 19 24 1012.5 1012.5 0.0
16/10:16am 11.2 4.6 10.1 93 0.6 SW 35 44 19 24 1012.5 1012.5 0.0
16/10:11am 11.6 5.2 10.7 94 0.5 SW 35 44 19 24 1012.4 1012.4 0.0
16/10:00am 11.4 4.9 10.3 93 0.6 SW 35 48 19 26 1012.3 1012.3 0.0
16/09:30am 11.7 6.6 10.6 93 0.6 SSW 28 41 15 22 1011.8 1011.8 0.0
16/09:24am 11.5 5.6 10.6 94 0.5 SW 32 46 17 25 1011.9 1011.9 0.0
16/09:00am 11.4 5.5 10.5 94 0.5 SW 32 44 17 24 1011.6 1011.6 8.0
16/08:32am 11.2 6.2 10.9 98 0.2 SW 28 43 15 23 1011.1 1011.1 7.8
16/08:30am 11.3 6.3 11.0 98 0.2 SW 28 37 15 20 1011.1 1011.1 7.8
16/08:14am 10.6 4.6 10.0 96 0.3 SW 32 52 17 28 1010.7 1010.7 7.8
16/08:13am 10.8 4.8 10.2 96 0.3 SW 32 52 17 28 1010.7 1010.7 7.8
16/08:00am 11.0 4.8 10.1 94 0.5 SSW 33 48 18 26 1010.3 1010.3 7.8
16/07:52am 11.0 5.5 10.4 96 0.3 SW 30 41 16 22 1010.1 1010.1 7.8
16/07:30am 10.7 4.2 10.2 97 0.3 SW 35 48 19 26 1009.5 1009.5 7.6
16/07:16am 10.8 4.9 10.3 97 0.3 SW 32 43 17 23 1009.2 1009.2 7.2
16/07:07am 10.9 5.3 10.3 96 0.3 SW 30 48 16 26 1009.0 1009.0 7.2
16/07:00am 10.6 3.9 9.7 94 0.5 SW 35 52 19 28 1008.8 1008.8 7.2
16/06:51am 11.0 5.4 10.1 94 0.5 SW 30 52 16 28 1008.6 1008.6 7.2
16/06:30am 10.8 4.6 9.9 94 0.5 SSW 33 46 18 25 1008.2 1008.2 7.2
16/06:00am 11.1 5.4 9.7 91 0.7 SW 30 39 16 21 1007.7 1007.7 7.2
16/05:30am 10.4 4.0 9.3 93 0.5 SW 33 46 18 25 1007.3 1007.3 7.0
16/05:15am 10.8 4.6 9.2 90 0.8 SW 32 50 17 27 1007.2 1007.2 7.0
16/05:00am 11.0 4.9 9.8 92 0.6 SW 32 44 17 24 1006.9 1006.9 7.0
16/04:30am 11.3 5.9 9.6 89 0.9 SW 28 37 15 20 1006.4 1006.4 7.0
16/04:00am 11.1 5.7 9.5 90 0.8 SW 28 35 15 19 1006.0 1006.0 7.0
16/03:30am 11.0 4.8 9.3 89 0.9 SW 32 43 17 23 1005.7 1005.7 7.0
16/03:07am 11.0 6.2 10.2 95 0.4 SSW 26 39 14 21 1005.7 1005.7 7.0
16/03:00am 10.9 4.7 10.0 94 0.5 SSW 33 50 18 27 1005.6 1005.6 7.0
16/02:57am 10.8 4.1 9.7 93 0.6 SSW 35 50 19 27 1005.7 1005.7 7.0
16/02:30am 11.4 5.7 9.8 90 0.8 SW 30 41 16 22 1005.3 1005.3 7.0

Other formats

Comma delimited format used in spreadsheet applications
http://www.bom.gov.au/fwo/IDT60801/IDT60801.94850.axf

JavaScript Object Notation format (JSON) in row-major order
http://www.bom.gov.au/fwo/IDT60801/IDT60801.94850.json

Data quality

Most of these data are generated automatically and are frequently updated. Quality checks on data are not normally performed. It is possible for incorrect values to appear. Refer to information at About Latest Weather Observations and please check the disclaimer before using these data.